createdAt,value
2022-10-19T00:00:16.974Z,6.07
2022-10-19T00:02:42.751Z,4.50
2022-10-19T00:05:08.756Z,5.30
2022-10-19T00:07:34.823Z,5.82
2022-10-19T00:10:00.785Z,5.78
2022-10-19T00:12:26.573Z,5.03
2022-10-19T00:14:52.336Z,5.22
2022-10-19T00:17:18.269Z,6.40
2022-10-19T00:19:44.061Z,6.15
2022-10-19T00:22:13.026Z,6.18
2022-10-19T00:24:40.158Z,6.32
2022-10-19T00:27:05.926Z,6.57
2022-10-19T00:29:31.937Z,7.03
2022-10-19T00:31:57.731Z,6.65
2022-10-19T00:34:24.180Z,7.13
2022-10-19T00:36:50.047Z,7.15
2022-10-19T00:39:17.192Z,6.63
2022-10-19T00:41:45.110Z,6.32
2022-10-19T00:44:10.776Z,6.78
2022-10-19T00:46:45.168Z,6.10
2022-10-19T00:49:21.053Z,7.30
2022-10-19T00:51:53.113Z,6.97
2022-10-19T00:54:19.294Z,6.82
2022-10-19T00:56:48.930Z,7.25
2022-10-19T00:59:17.656Z,7.35
2022-10-19T01:01:44.534Z,7.05
2022-10-19T01:04:11.458Z,6.00
2022-10-19T01:06:38.842Z,6.13
2022-10-19T01:09:05.698Z,6.38
2022-10-19T01:11:40.038Z,7.78
2022-10-19T01:14:30.612Z,6.03
2022-10-19T01:17:05.381Z,6.20
2022-10-19T01:20:08.761Z,7.28
2022-10-19T01:22:59.300Z,6.50
2022-10-19T01:25:55.773Z,7.05
2022-10-19T01:28:58.583Z,6.72
2022-10-19T01:31:42.107Z,7.00
2022-10-19T01:34:13.911Z,7.68
2022-10-19T01:36:57.709Z,7.57
2022-10-19T01:39:43.274Z,6.82
2022-10-19T01:42:36.837Z,6.25
2022-10-19T01:45:08.814Z,6.68
2022-10-19T01:47:55.142Z,5.63
2022-10-19T01:50:31.311Z,5.50
2022-10-19T01:52:58.968Z,4.82
2022-10-19T01:55:26.089Z,4.32
2022-10-19T01:57:57.549Z,4.70
2022-10-19T02:00:24.000Z,4.55
2022-10-19T02:02:52.569Z,4.43
2022-10-19T02:05:22.159Z,4.68
2022-10-19T02:07:53.966Z,4.70
2022-10-19T02:10:21.101Z,5.07
2022-10-19T02:12:47.581Z,5.60
2022-10-19T02:15:20.590Z,4.85
2022-10-19T02:17:51.209Z,5.00
2022-10-19T02:20:18.694Z,4.55
2022-10-19T02:22:44.517Z,4.80
2022-10-19T02:25:11.305Z,4.88
2022-10-19T02:27:41.125Z,5.05
2022-10-19T02:30:16.637Z,5.05
2022-10-19T02:32:43.544Z,4.53
2022-10-19T02:35:11.434Z,5.07
2022-10-19T02:37:37.864Z,4.28
2022-10-19T02:40:04.663Z,4.47
2022-10-19T02:42:59.851Z,5.43
2022-10-19T02:45:29.930Z,4.80
2022-10-19T02:48:06.389Z,4.22
2022-10-19T02:50:32.667Z,3.72
2022-10-19T02:52:59.159Z,4.60
2022-10-19T02:55:25.485Z,3.88
2022-10-19T02:57:51.364Z,3.47
2022-10-19T03:00:17.451Z,4.10
2022-10-19T03:02:43.356Z,3.67
2022-10-19T03:05:09.482Z,4.00
2022-10-19T03:07:35.595Z,4.13
2022-10-19T03:10:01.870Z,3.92
2022-10-19T03:12:27.698Z,4.20
2022-10-19T03:14:53.888Z,4.75
2022-10-19T03:17:19.732Z,4.93
2022-10-19T03:19:45.590Z,5.22
2022-10-19T03:22:13.474Z,4.40
2022-10-19T03:24:39.225Z,5.45
2022-10-19T03:27:05.174Z,5.20
2022-10-19T03:29:30.909Z,5.20
2022-10-19T03:31:56.717Z,5.30
2022-10-19T03:34:22.619Z,5.45
2022-10-19T03:36:48.754Z,5.57
2022-10-19T03:39:15.986Z,5.32
2022-10-19T03:41:42.445Z,5.75
2022-10-19T03:44:09.814Z,6.30
2022-10-19T03:46:37.045Z,6.35
2022-10-19T03:49:04.011Z,5.78
2022-10-19T03:51:31.153Z,5.22
2022-10-19T03:54:02.604Z,6.07
2022-10-19T03:56:29.769Z,6.72
2022-10-19T03:58:57.576Z,5.57
2022-10-19T04:01:27.332Z,5.53
2022-10-19T04:04:01.765Z,5.93
2022-10-19T04:06:32.044Z,6.35
2022-10-19T04:08:58.441Z,5.53
2022-10-19T04:11:27.440Z,6.03
2022-10-19T04:13:54.178Z,5.35
2022-10-19T04:16:21.130Z,5.50
2022-10-19T04:18:47.351Z,7.10
2022-10-19T04:21:26.305Z,6.40
2022-10-19T04:23:56.990Z,5.72
2022-10-19T04:26:23.018Z,6.05
2022-10-19T04:28:49.081Z,5.85
2022-10-19T04:31:14.919Z,5.18
2022-10-19T04:33:40.973Z,5.68
2022-10-19T04:36:09.447Z,5.82
2022-10-19T04:38:35.908Z,5.55
2022-10-19T04:41:21.360Z,5.90
2022-10-19T04:43:48.410Z,7.82
2022-10-19T04:46:18.631Z,7.35
2022-10-19T04:48:45.652Z,9.00
2022-10-19T04:51:11.942Z,9.73
2022-10-19T04:53:39.064Z,11.68
2022-10-19T04:56:07.826Z,10.30
2022-10-19T04:58:34.164Z,11.25
2022-10-19T05:01:07.234Z,10.57
2022-10-19T05:03:33.030Z,9.52
2022-10-19T05:05:58.920Z,10.40
2022-10-19T05:08:24.692Z,10.30
2022-10-19T05:10:50.495Z,10.63
2022-10-19T05:13:16.207Z,10.95
2022-10-19T05:15:41.971Z,10.95
2022-10-19T05:18:08.215Z,10.73
2022-10-19T05:20:34.197Z,10.77
2022-10-19T05:23:04.608Z,11.02
2022-10-19T05:25:33.952Z,11.00
2022-10-19T05:27:59.675Z,10.23
2022-10-19T05:30:25.556Z,10.00
2022-10-19T05:32:51.336Z,10.35
2022-10-19T05:35:20.026Z,11.30
2022-10-19T05:37:48.154Z,10.80
2022-10-19T05:40:13.969Z,12.18
2022-10-19T05:42:39.690Z,10.73
2022-10-19T05:45:05.935Z,10.63
2022-10-19T05:47:34.036Z,10.52
2022-10-19T05:50:00.047Z,11.20
2022-10-19T05:52:25.788Z,10.75
2022-10-19T05:54:53.275Z,11.27
2022-10-19T05:57:19.019Z,11.80
2022-10-19T05:59:44.764Z,12.43
2022-10-19T06:02:13.497Z,11.93
2022-10-19T06:04:39.301Z,12.43
2022-10-19T06:07:05.105Z,10.77
2022-10-19T06:09:35.201Z,11.98
2022-10-19T06:12:01.906Z,12.18
2022-10-19T06:14:27.783Z,13.50
2022-10-19T06:16:53.540Z,11.60
2022-10-19T06:19:19.289Z,10.20
2022-10-19T06:21:45.942Z,9.48
2022-10-19T06:24:12.370Z,9.45
2022-10-19T06:26:38.404Z,9.27
2022-10-19T06:29:04.640Z,9.50
2022-10-19T06:31:32.931Z,9.65
2022-10-19T06:33:58.768Z,9.82
2022-10-19T06:36:27.601Z,9.63
2022-10-19T06:38:53.940Z,10.70
2022-10-19T06:41:20.222Z,10.40
2022-10-19T06:43:53.882Z,10.68
2022-10-19T06:46:22.558Z,10.40
2022-10-19T06:49:00.587Z,10.00
2022-10-19T06:51:28.243Z,8.27
2022-10-19T06:53:56.678Z,9.57
2022-10-19T06:56:24.942Z,8.75
2022-10-19T06:58:51.256Z,8.50
2022-10-19T07:01:17.053Z,8.38
2022-10-19T07:03:42.993Z,9.30
2022-10-19T07:06:10.808Z,8.43
2022-10-19T07:08:38.363Z,8.05
2022-10-19T07:11:13.950Z,8.90
2022-10-19T07:18:34.698Z,8.18
2022-10-19T07:21:03.447Z,7.43
2022-10-19T07:23:31.820Z,7.28
2022-10-19T07:26:01.515Z,6.95
2022-10-19T07:28:28.691Z,7.00
2022-10-19T07:30:54.829Z,7.03
2022-10-19T07:33:20.752Z,6.38
2022-10-19T07:35:46.583Z,6.22
2022-10-19T07:38:12.441Z,6.38
2022-10-19T07:40:38.225Z,6.50
2022-10-19T07:43:04.259Z,5.35
2022-10-19T07:45:31.098Z,5.65
2022-10-19T07:47:58.348Z,5.50
2022-10-19T07:50:24.556Z,5.68
2022-10-19T07:52:53.589Z,5.20
2022-10-19T07:55:19.444Z,5.10
2022-10-19T07:57:49.191Z,5.22
2022-10-19T08:00:16.499Z,5.30
2022-10-19T08:02:55.977Z,4.93
2022-10-19T08:05:25.947Z,4.10
2022-10-19T08:07:53.057Z,4.25
2022-10-19T08:10:18.816Z,4.60
2022-10-19T08:12:44.660Z,5.72
2022-10-19T08:15:10.557Z,5.88
2022-10-19T08:17:37.941Z,6.47
2022-10-19T08:20:05.778Z,6.07
2022-10-19T08:22:31.943Z,5.50
2022-10-19T08:24:57.979Z,5.60
2022-10-19T08:27:24.304Z,5.82
2022-10-19T08:29:50.961Z,4.82
2022-10-19T08:32:18.131Z,5.20
2022-10-19T08:34:44.438Z,4.70
2022-10-19T08:37:20.107Z,4.78
2022-10-19T08:39:56.239Z,4.70
2022-10-19T08:42:41.508Z,4.05
2022-10-19T08:45:16.234Z,4.30
2022-10-19T08:47:57.496Z,4.82
2022-10-19T08:50:28.501Z,4.47
2022-10-19T08:53:07.072Z,4.43
2022-10-19T08:56:14.951Z,4.45
2022-10-19T08:59:20.991Z,3.92
2022-10-19T09:02:18.753Z,4.43
2022-10-19T09:04:49.648Z,4.05
2022-10-19T09:07:17.203Z,5.63
2022-10-19T09:09:48.441Z,4.53
2022-10-19T09:12:19.027Z,4.05
2022-10-19T09:14:55.782Z,4.07
2022-10-19T09:17:21.660Z,5.80
2022-10-19T09:19:47.394Z,4.20
2022-10-19T09:22:26.132Z,3.83
2022-10-19T09:24:57.605Z,3.45
2022-10-19T09:27:34.728Z,3.20
2022-10-19T09:30:22.210Z,2.70
2022-10-19T09:32:59.632Z,2.92
2022-10-19T09:35:31.269Z,2.28
2022-10-19T09:37:57.606Z,2.30
2022-10-19T09:40:26.962Z,2.35
2022-10-19T09:42:57.482Z,3.03
2022-10-19T09:45:32.047Z,2.17
2022-10-19T09:48:07.139Z,1.90
2022-10-19T09:50:42.809Z,2.00
2022-10-19T09:53:18.864Z,1.95
2022-10-19T09:55:58.013Z,2.03
2022-10-19T09:58:29.211Z,1.80
2022-10-19T10:00:58.450Z,1.60
2022-10-19T10:03:34.707Z,1.67
2022-10-19T10:06:14.497Z,1.42
2022-10-19T10:08:46.872Z,1.77
2022-10-19T10:11:22.002Z,1.55
2022-10-19T10:13:50.139Z,1.60
2022-10-19T10:16:17.704Z,1.42
2022-10-19T10:19:03.373Z,1.40
2022-10-19T10:21:34.006Z,1.70
2022-10-19T10:24:04.944Z,1.33
2022-10-19T10:26:31.261Z,1.30
2022-10-19T10:29:00.634Z,1.33
2022-10-19T10:31:29.360Z,1.08
2022-10-19T10:34:07.528Z,1.50
2022-10-19T10:36:43.929Z,1.70
2022-10-19T10:39:15.341Z,1.40
2022-10-19T10:41:44.339Z,1.08
2022-10-19T10:44:36.022Z,1.73
2022-10-19T10:47:06.077Z,1.27
2022-10-19T10:49:35.709Z,1.98
2022-10-19T10:52:16.646Z,2.20
2022-10-19T10:55:15.728Z,1.38
2022-10-19T10:57:47.153Z,1.20
2022-10-19T11:00:15.593Z,1.42
2022-10-19T11:02:41.331Z,1.25
2022-10-19T11:05:16.842Z,0.98
2022-10-19T11:07:46.812Z,1.50
2022-10-19T11:10:33.466Z,1.45
2022-10-19T11:13:28.322Z,1.75
2022-10-19T11:16:02.064Z,1.45
2022-10-19T11:18:36.388Z,1.10
2022-10-19T11:21:11.098Z,1.48
2022-10-19T11:24:01.164Z,1.33
2022-10-19T11:26:41.208Z,1.70
2022-10-19T11:29:28.402Z,1.08
2022-10-19T11:31:56.307Z,1.08
2022-10-19T11:34:37.169Z,1.33
2022-10-19T11:37:27.038Z,1.00
2022-10-19T11:40:22.763Z,1.00
2022-10-19T11:43:04.251Z,1.25
2022-10-19T11:45:51.685Z,1.33
2022-10-19T11:48:34.345Z,1.40
2022-10-19T11:51:22.046Z,1.58
2022-10-19T11:54:29.489Z,1.75
2022-10-19T11:57:34.623Z,1.58
2022-10-19T12:02:53.666Z,1.15
2022-10-19T12:05:25.830Z,1.10
2022-10-19T12:08:00.775Z,0.95
2022-10-19T12:10:51.018Z,1.25
2022-10-19T12:13:26.746Z,1.27
2022-10-19T12:15:54.538Z,0.70
2022-10-19T12:18:31.047Z,1.20
2022-10-19T12:21:00.380Z,0.93
2022-10-19T12:23:32.299Z,1.15
2022-10-19T12:26:01.441Z,0.90
2022-10-19T12:28:30.694Z,0.73
2022-10-19T12:30:58.881Z,1.00
2022-10-19T12:33:24.869Z,0.93
2022-10-19T12:36:09.182Z,1.00
2022-10-19T12:38:43.960Z,1.08
2022-10-19T12:41:29.781Z,1.65
2022-10-19T12:44:19.200Z,1.02
2022-10-19T12:46:57.577Z,0.77
2022-10-19T12:49:25.998Z,1.52
2022-10-19T12:51:53.804Z,1.08
2022-10-19T12:54:28.708Z,1.10
2022-10-19T12:56:57.013Z,1.33
2022-10-19T12:59:26.246Z,1.20
2022-10-19T13:01:53.059Z,1.00
2022-10-19T13:04:23.635Z,1.00
2022-10-19T13:07:10.172Z,1.00
2022-10-19T13:09:46.096Z,1.10
2022-10-19T13:12:21.928Z,0.93
2022-10-19T13:14:55.517Z,0.70
2022-10-19T13:17:34.355Z,1.13
2022-10-19T13:20:12.634Z,1.00
2022-10-19T13:22:38.705Z,1.10
2022-10-19T13:25:29.017Z,1.30
2022-10-19T13:28:06.717Z,1.10
2022-10-19T13:30:35.509Z,0.80
2022-10-19T13:33:29.604Z,1.25
2022-10-19T13:35:58.563Z,1.02
2022-10-19T13:38:55.296Z,1.23
2022-10-19T13:41:25.145Z,1.05
2022-10-19T13:44:14.513Z,1.92
2022-10-19T13:47:06.752Z,1.25
2022-10-19T13:49:59.755Z,1.50
2022-10-19T13:52:46.125Z,0.82
2022-10-19T13:55:17.795Z,0.90
2022-10-19T13:58:14.265Z,1.02
2022-10-19T14:01:26.423Z,1.05
2022-10-19T14:04:11.511Z,1.60
2022-10-19T14:06:51.421Z,1.80
2022-10-19T14:09:17.180Z,1.23
2022-10-19T14:11:46.603Z,1.50
2022-10-19T14:14:16.013Z,1.10
2022-10-19T14:17:04.013Z,1.15
2022-10-19T14:19:42.572Z,1.27
2022-10-19T14:22:37.489Z,1.20
2022-10-19T14:25:27.197Z,1.23
2022-10-19T14:28:16.409Z,1.27
2022-10-19T14:30:43.169Z,1.13
2022-10-19T14:33:13.744Z,1.25
2022-10-19T14:35:44.251Z,1.38
2022-10-19T14:38:19.154Z,1.40
2022-10-19T14:40:45.163Z,1.40
2022-10-19T14:43:32.610Z,2.00
2022-10-19T14:46:07.487Z,1.40
2022-10-19T14:48:47.988Z,1.35
2022-10-19T14:51:37.991Z,1.65
2022-10-19T14:54:12.639Z,1.23
2022-10-19T14:56:56.040Z,1.30
2022-10-19T14:59:27.558Z,1.15
2022-10-19T15:01:57.549Z,0.98
2022-10-19T15:04:27.039Z,1.20
2022-10-19T15:06:54.371Z,1.58
2022-10-19T15:09:37.372Z,1.30
2022-10-19T15:12:18.673Z,1.20
2022-10-19T15:14:45.830Z,1.10
2022-10-19T15:17:26.933Z,1.70
2022-10-19T15:19:55.338Z,1.48
2022-10-19T15:22:36.476Z,1.20
2022-10-19T15:25:05.459Z,1.17
2022-10-19T15:27:44.813Z,1.20
2022-10-19T15:30:16.632Z,1.65
2022-10-19T15:32:47.611Z,1.30
2022-10-19T15:35:28.357Z,1.20
2022-10-19T15:38:24.235Z,0.90
2022-10-19T15:40:56.291Z,1.40
2022-10-19T15:43:34.065Z,1.80
2022-10-19T15:45:59.801Z,0.93
2022-10-19T15:48:46.089Z,1.30
2022-10-19T15:51:26.925Z,1.20
2022-10-19T15:53:58.208Z,1.13
2022-10-19T15:56:26.913Z,1.20
2022-10-19T15:58:57.597Z,0.95
2022-10-19T16:01:26.343Z,1.15
2022-10-19T16:03:52.808Z,1.83
2022-10-19T16:06:20.438Z,1.65
2022-10-19T16:08:46.890Z,1.30
2022-10-19T16:11:13.965Z,1.17
2022-10-19T16:13:39.863Z,1.63
2022-10-19T16:16:11.388Z,1.20
2022-10-19T16:18:38.081Z,1.40
2022-10-19T16:21:04.492Z,1.63
2022-10-19T16:23:35.435Z,1.15
2022-10-19T16:26:05.207Z,1.02
2022-10-19T16:28:31.595Z,1.20
2022-10-19T16:30:57.365Z,1.30
2022-10-19T16:33:23.207Z,1.55
2022-10-19T16:35:49.201Z,1.50
2022-10-19T16:38:15.695Z,1.80
2022-10-19T16:40:41.553Z,1.20
2022-10-19T16:43:08.031Z,1.45
2022-10-19T16:45:34.788Z,1.30
2022-10-19T16:48:01.075Z,1.42
2022-10-19T16:50:26.991Z,1.60
2022-10-19T16:53:11.341Z,2.10
2022-10-19T16:55:41.736Z,1.42
2022-10-19T16:58:08.142Z,1.23
2022-10-19T17:00:34.628Z,1.27
2022-10-19T17:03:00.480Z,1.15
2022-10-19T17:05:26.392Z,1.60
2022-10-19T17:07:52.200Z,2.25
2022-10-19T17:10:18.941Z,1.63
2022-10-19T17:12:44.787Z,1.20
2022-10-19T17:17:57.311Z,1.55
2022-10-19T17:20:23.125Z,1.70
2022-10-19T17:22:51.355Z,1.15
2022-10-19T17:25:17.133Z,1.75
2022-10-19T17:27:43.001Z,1.05
2022-10-19T17:30:08.965Z,1.90
2022-10-19T17:32:34.960Z,1.65
2022-10-19T17:35:00.971Z,1.52
2022-10-19T17:37:26.733Z,2.03
2022-10-19T17:39:52.577Z,1.60
2022-10-19T17:42:18.356Z,2.00
2022-10-19T17:44:44.177Z,2.30
2022-10-19T17:47:09.972Z,1.80
2022-10-19T17:49:36.311Z,2.13
2022-10-19T17:52:02.212Z,1.80
2022-10-19T17:54:28.043Z,2.53
2022-10-19T17:56:54.071Z,1.65
2022-10-19T17:59:30.345Z,1.83
2022-10-19T18:02:01.608Z,2.08
2022-10-19T18:04:27.444Z,1.98
2022-10-19T18:06:53.236Z,1.90
2022-10-19T18:09:19.058Z,2.38
2022-10-19T18:11:44.900Z,2.10
2022-10-19T18:14:12.213Z,2.20
2022-10-19T18:16:41.020Z,3.13
2022-10-19T18:19:07.990Z,2.53
2022-10-19T18:21:37.864Z,2.92
2022-10-19T18:24:04.643Z,2.20
2022-10-19T18:26:33.125Z,2.78
2022-10-19T18:29:00.763Z,2.17
2022-10-19T18:31:29.796Z,3.13
2022-10-19T18:33:57.290Z,2.85
2022-10-19T18:36:23.751Z,3.08
2022-10-19T18:38:50.900Z,3.47
2022-10-19T18:41:17.118Z,2.40
2022-10-19T18:43:43.132Z,3.33
2022-10-19T18:46:09.181Z,2.72
2022-10-19T18:48:37.255Z,2.90
2022-10-19T18:51:06.850Z,2.80
2022-10-19T18:53:33.727Z,2.67
2022-10-19T18:56:01.722Z,2.53
2022-10-19T18:58:30.907Z,2.88
2022-10-19T19:01:14.325Z,2.70
2022-10-19T19:03:43.286Z,4.50
2022-10-19T19:06:14.989Z,3.38
2022-10-19T19:08:41.444Z,3.15
2022-10-19T19:11:29.598Z,3.53
2022-10-19T19:13:59.987Z,3.10
2022-10-19T19:16:27.302Z,2.65
2022-10-19T19:18:53.875Z,3.03
2022-10-19T19:21:21.606Z,3.05
2022-10-19T19:23:48.789Z,2.67
2022-10-19T19:26:16.506Z,3.22
2022-10-19T19:28:46.289Z,3.80
2022-10-19T19:31:16.641Z,3.03
2022-10-19T19:33:43.988Z,2.95
2022-10-19T19:36:11.381Z,3.70
2022-10-19T19:38:37.226Z,3.20
2022-10-19T19:41:07.615Z,3.50
2022-10-19T19:43:38.605Z,3.05
2022-10-19T19:46:11.827Z,3.45
2022-10-19T19:48:39.044Z,3.63
2022-10-19T19:51:08.399Z,3.67
2022-10-19T19:53:34.292Z,4.15
2022-10-19T19:56:00.037Z,4.13
2022-10-19T19:58:25.885Z,3.85
2022-10-19T20:00:51.846Z,3.53
2022-10-19T20:03:17.626Z,3.88
2022-10-19T20:05:43.666Z,3.53
2022-10-19T20:08:10.594Z,4.07
2022-10-19T20:10:41.719Z,4.13
2022-10-19T20:13:07.891Z,4.93
2022-10-19T20:15:36.940Z,3.88
2022-10-19T20:18:02.726Z,3.58
2022-10-19T20:20:28.515Z,4.78
2022-10-19T20:22:54.286Z,4.43
2022-10-19T20:25:20.048Z,4.75
2022-10-19T20:27:46.080Z,4.70
2022-10-19T20:30:11.924Z,4.60
2022-10-19T20:32:38.141Z,5.22
2022-10-19T20:35:04.559Z,5.05
2022-10-19T20:37:30.670Z,5.20
2022-10-19T20:39:56.576Z,5.15
2022-10-19T20:42:22.442Z,4.85
2022-10-19T20:44:48.409Z,5.65
2022-10-19T20:47:14.476Z,5.97
2022-10-19T20:49:40.311Z,5.03
2022-10-19T20:52:06.680Z,5.07
2022-10-19T20:54:32.785Z,5.68
2022-10-19T20:56:58.675Z,5.63
2022-10-19T20:59:26.887Z,6.07
2022-10-19T21:01:56.305Z,6.72
2022-10-19T21:04:22.846Z,5.85
2022-10-19T21:06:50.388Z,5.53
2022-10-19T21:09:19.279Z,6.05
2022-10-19T21:11:46.688Z,5.68
2022-10-19T21:14:15.420Z,5.60
2022-10-19T21:16:41.768Z,6.18
2022-10-19T21:19:11.297Z,5.32
2022-10-19T21:21:40.525Z,5.97
2022-10-19T21:24:12.914Z,4.93
2022-10-19T21:26:39.113Z,5.90
2022-10-19T21:29:08.696Z,5.72
2022-10-19T21:31:36.364Z,6.00
2022-10-19T21:34:06.559Z,5.55
2022-10-19T21:36:32.671Z,6.18
2022-10-19T21:38:58.436Z,6.07
2022-10-19T21:41:26.464Z,6.95
2022-10-19T21:43:53.548Z,6.47
2022-10-19T21:46:20.919Z,6.50
2022-10-19T21:48:47.145Z,6.72
2022-10-19T21:51:21.852Z,7.15
2022-10-19T21:53:47.904Z,6.23
2022-10-19T21:56:14.274Z,5.75
2022-10-19T21:58:44.722Z,7.60
2022-10-19T22:01:10.685Z,7.53
2022-10-19T22:03:36.583Z,7.47
2022-10-19T22:06:02.516Z,6.57
2022-10-19T22:08:28.341Z,7.13
2022-10-19T22:10:54.174Z,7.28
2022-10-19T22:13:19.929Z,6.35
2022-10-19T22:15:45.709Z,6.07
2022-10-19T22:18:11.713Z,5.97
2022-10-19T22:20:38.800Z,6.05
2022-10-19T22:23:06.874Z,5.97
2022-10-19T22:25:34.521Z,6.97
2022-10-19T22:28:00.469Z,6.68
2022-10-19T22:30:26.607Z,6.03
2022-10-19T22:32:52.500Z,6.68
2022-10-19T22:35:18.306Z,5.95
2022-10-19T22:37:44.064Z,6.38
2022-10-19T22:40:10.360Z,6.05
2022-10-19T22:42:36.355Z,6.38
2022-10-19T22:45:02.290Z,6.72
2022-10-19T22:47:28.084Z,6.88
2022-10-19T22:49:53.826Z,6.63
2022-10-19T22:52:19.585Z,6.90
2022-10-19T22:54:45.323Z,6.38
2022-10-19T22:57:11.525Z,6.82
2022-10-19T22:59:37.908Z,7.05
2022-10-19T23:02:03.970Z,7.38
2022-10-19T23:04:29.786Z,7.18
2022-10-19T23:06:55.519Z,7.78
2022-10-19T23:09:21.304Z,6.90
2022-10-19T23:11:48.190Z,7.45
2022-10-19T23:14:14.659Z,7.25
2022-10-19T23:16:40.557Z,6.95
2022-10-19T23:19:06.324Z,7.35
2022-10-19T23:21:32.090Z,7.05
2022-10-19T23:23:57.867Z,7.68
2022-10-19T23:26:24.355Z,8.68
2022-10-19T23:28:50.765Z,7.93
2022-10-19T23:31:18.978Z,8.15
2022-10-19T23:33:46.205Z,7.68
2022-10-19T23:36:19.228Z,8.13
2022-10-19T23:38:46.399Z,9.15
2022-10-19T23:41:12.795Z,8.15
2022-10-19T23:43:39.446Z,8.25
2022-10-19T23:46:05.693Z,8.50
2022-10-19T23:48:31.543Z,7.57
2022-10-19T23:50:58.405Z,7.90
2022-10-19T23:53:24.825Z,7.45
2022-10-19T23:55:50.754Z,8.43
2022-10-19T23:58:16.554Z,8.13
